Time;durP1;ratioP1;P1;durP2;ratioP2;P2;SDS_P1;SDS_P2;PMS_P1;PMS_P2;Temp;Humidity;BMP_temperature;BMP_pressure;BME280_temperature;BME280_humidity;BME280_pressure;Samples;Min_cycle;Max_cycle;Signal;HPM_P1;HPM_P2
2023/04/25 00:03:54;;;;;;;1.20;1.10;;;;;;;9.63;92.65;99325.63;180768;1262;43869;-85
2023/04/25 00:07:58;;;;;;;1.80;1.60;;;;;;;9.57;92.69;99322.61;180769;1262;43945;-87
2023/04/25 00:12:02;;;;;;;2.60;1.70;;;;;;;9.49;92.56;99322.17;180840;1262;44045;-87
2023/04/25 00:16:06;;;;;;;4.20;2.80;;;;;;;9.42;92.71;99318.73;180715;1264;43748;-88
2023/04/25 00:20:10;;;;;;;4.50;3.00;;;;;;;9.32;93.37;99320.48;180719;1263;59334;-87
2023/04/25 00:24:14;;;;;;;7.70;4.00;;;;;;;9.22;93.63;99315.24;180773;1263;43908;-87
2023/04/25 00:28:17;;;;;;;6.70;4.30;;;;;;;9.14;93.67;99318.30;180714;1266;44172;-86
2023/04/25 00:32:20;;;;;;;6.50;3.70;;;;;;;9.11;93.95;99321.73;180830;1266;45598;-86
2023/04/25 00:36:23;;;;;;;4.50;3.20;;;;;;;9.04;93.93;99326.58;180749;1262;43968;-86
2023/04/25 00:40:27;;;;;;;10.50;6.70;;;;;;;9.02;94.34;99331.02;180767;1264;58256;-87
2023/04/25 00:44:32;;;;;;;6.00;4.20;;;;;;;8.98;95.26;99336.79;180738;1262;43831;-86
2023/04/25 00:48:35;;;;;;;3.90;3.50;;;;;;;8.99;95.82;99337.61;180687;1263;43736;-86
2023/04/25 00:52:41;;;;;;;3.80;3.20;;;;;;;8.96;96.01;99338.79;180752;1263;44060;-86
2023/04/25 00:56:45;;;;;;;6.90;3.10;;;;;;;8.93;95.99;99338.70;180691;1263;43810;-86
2023/04/25 01:00:50;;;;;;;3.30;1.90;;;;;;;8.88;95.90;99345.14;180665;1262;59650;-86
2023/04/25 01:04:53;;;;;;;3.60;2.20;;;;;;;8.85;95.99;99345.25;180577;1264;43949;-86
2023/04/25 01:08:57;;;;;;;4.60;2.80;;;;;;;8.89;95.76;99344.37;180724;1264;44504;-86
2023/04/25 01:13:00;;;;;;;4.10;3.20;;;;;;;8.95;95.44;99346.52;180724;1263;43783;-87
2023/04/25 01:17:04;;;;;;;3.60;1.90;;;;;;;8.93;95.06;99344.59;180731;1264;43860;-87
2023/04/25 01:21:09;;;;;;;2.60;2.20;;;;;;;8.83;95.50;99344.05;180715;1264;58349;-88
2023/04/25 01:25:14;;;;;;;4.00;2.90;;;;;;;8.80;96.01;99343.58;180692;1263;43789;-86
2023/04/25 01:29:18;;;;;;;4.60;3.20;;;;;;;8.87;95.93;99343.00;180533;1263;44067;-87
2023/04/25 01:33:21;;;;;;;3.00;2.10;;;;;;;8.88;95.54;99346.08;180669;1263;44098;-87
2023/04/25 01:37:25;;;;;;;6.50;2.80;;;;;;;8.90;95.76;99343.91;180739;1262;43683;-87
2023/04/25 01:41:28;;;;;;;3.30;3.00;;;;;;;8.94;95.64;99344.98;180740;1264;58296;-86
2023/04/25 01:45:32;;;;;;;4.50;3.50;;;;;;;8.97;95.39;99348.39;180646;1263;44279;-87
2023/04/25 01:49:36;;;;;;;3.00;2.60;;;;;;;8.99;94.92;99351.27;180719;1263;44245;-87
2023/04/25 01:53:39;;;;;;;4.80;3.10;;;;;;;8.95;94.19;99346.67;180725;1263;44267;-87
2023/04/25 01:57:42;;;;;;;6.20;3.00;;;;;;;8.89;94.39;99342.14;180671;1263;44098;-86
2023/04/25 02:01:45;;;;;;;8.00;3.90;;;;;;;8.88;94.49;99336.35;180710;1262;59072;-87
2023/04/25 02:05:49;;;;;;;5.30;3.40;;;;;;;8.89;94.47;99335.72;180630;1263;44112;-89
2023/04/25 02:09:52;;;;;;;7.50;3.50;;;;;;;8.90;94.36;99338.31;180730;1263;44069;-87
2023/04/25 02:13:55;;;;;;;6.50;4.10;;;;;;;8.83;94.43;99338.72;180722;1262;43745;-87
2023/04/25 02:18:00;;;;;;;4.60;3.60;;;;;;;8.76;94.77;99336.00;180689;1266;43827;-86
2023/04/25 02:22:03;;;;;;;6.40;4.00;;;;;;;8.68;95.11;99337.77;180715;1264;59142;-87
2023/04/25 02:26:06;;;;;;;3.50;3.10;;;;;;;8.59;95.75;99338.21;180828;1262;44091;-86
2023/04/25 02:30:10;;;;;;;5.70;3.20;;;;;;;8.50;96.44;99337.04;180727;1263;43775;-87
2023/04/25 02:34:13;;;;;;;4.50;3.70;;;;;;;8.43;96.66;99339.87;180663;1262;44116;-87
2023/04/25 02:38:16;;;;;;;4.70;3.80;;;;;;;8.41;96.90;99339.16;180675;1264;43989;-87
2023/04/25 02:42:19;;;;;;;4.90;3.30;;;;;;;8.42;96.73;99346.00;180642;1262;59350;-88
2023/04/25 02:46:23;;;;;;;6.10;4.30;;;;;;;8.43;96.39;99344.33;180585;1263;47022;-87
2023/04/25 02:50:40;;;;;;;8.80;5.30;;;;;;;8.39;96.32;99340.91;180731;1262;44185;-87
2023/04/25 02:54:43;;;;;;;5.60;4.70;;;;;;;8.35;96.08;99333.73;180582;1263;43806;-88
2023/04/25 02:58:47;;;;;;;4.00;3.70;;;;;;;8.30;95.89;99332.88;180800;1262;43813;-87
2023/04/25 03:02:53;;;;;;;4.90;4.10;;;;;;;8.29;95.72;99330.73;180823;1262;58348;-88
2023/04/25 03:06:57;;;;;;;7.60;4.60;;;;;;;8.27;95.30;99326.16;180936;1263;44066;-88
2023/04/25 03:11:00;;;;;;;5.70;4.70;;;;;;;8.24;95.45;99321.77;180806;1264;43798;-89
2023/04/25 03:15:04;;;;;;;6.30;3.50;;;;;;;8.25;95.49;99322.42;180816;1263;44065;-91
2023/04/25 03:19:09;;;;;;;9.00;5.30;;;;;;;8.25;95.65;99324.66;180981;1264;44259;-88
2023/04/25 03:23:16;;;;;;;11.00;5.00;;;;;;;8.25;95.57;99327.17;180999;1262;57912;-89
2023/04/25 03:27:21;;;;;;;5.10;4.30;;;;;;;8.24;95.19;99331.27;180960;1262;43822;-88
2023/04/25 03:31:26;;;;;;;4.10;3.40;;;;;;;8.18;95.22;99329.04;181041;1262;46894;-90
2023/04/25 03:35:32;;;;;;;7.00;4.40;;;;;;;8.17;95.54;99332.14;181000;1262;43885;-89
2023/04/25 03:39:35;;;;;;;5.50;4.00;;;;;;;8.17;95.32;99337.41;180908;1262;43832;-90
2023/04/25 03:43:39;;;;;;;6.90;4.40;;;;;;;8.16;95.38;99336.73;180864;1262;59487;-89
2023/04/25 03:47:42;;;;;;;6.00;4.80;;;;;;;8.19;95.47;99342.36;181004;1262;44337;-90
2023/04/25 03:51:46;;;;;;;3.80;3.30;;;;;;;8.23;95.24;99343.74;180952;1262;43761;-89
2023/04/25 03:55:50;;;;;;;6.90;5.00;;;;;;;8.25;94.74;99345.33;180993;1262;44264;-89
2023/04/25 03:59:54;;;;;;;5.20;4.60;;;;;;;8.23;94.31;99348.17;180935;1262;44035;-89
2023/04/25 04:03:57;;;;;;;7.40;4.40;;;;;;;8.20;94.40;99345.92;180886;1262;58058;-86
2023/04/25 04:08:01;;;;;;;7.20;5.60;;;;;;;8.23;94.57;99353.48;180903;1262;44360;-88
2023/04/25 04:12:05;;;;;;;5.00;4.50;;;;;;;8.25;94.47;99354.21;180843;1262;44130;-88
2023/04/25 04:16:08;;;;;;;3.80;3.40;;;;;;;8.21;93.75;99354.73;180803;1262;43907;-87
2023/04/25 04:20:11;;;;;;;6.70;4.20;;;;;;;8.19;94.39;99358.60;180915;1262;44043;-88
2023/04/25 04:24:16;;;;;;;7.40;5.30;;;;;;;8.19;94.40;99363.55;180899;1262;59546;-89
2023/04/25 04:28:20;;;;;;;6.10;4.60;;;;;;;8.17;94.58;99365.52;180796;1262;43981;-87
2023/04/25 04:32:25;;;;;;;4.10;3.30;;;;;;;8.19;95.00;99368.36;180872;1262;43933;-88
2023/04/25 04:36:28;;;;;;;6.80;4.40;;;;;;;8.21;95.93;99374.29;180761;1262;43954;-87
2023/04/25 04:40:32;;;;;;;8.20;5.50;;;;;;;8.33;96.50;99377.83;180847;1262;43807;-87
2023/04/25 04:44:36;;;;;;;6.70;4.70;;;;;;;8.40;96.31;99379.02;180939;1262;58605;-90
2023/04/25 04:48:39;;;;;;;4.00;3.60;;;;;;;8.47;96.16;99380.08;180773;1262;43816;-89
2023/04/25 04:52:43;;;;;;;6.80;4.90;;;;;;;8.50;95.76;99377.30;180772;1262;44164;-88
2023/04/25 04:56:46;;;;;;;7.40;5.80;;;;;;;8.57;95.66;99375.45;180721;1262;44142;-87
2023/04/25 05:00:50;;;;;;;7.80;5.60;;;;;;;8.60;94.88;99381.56;180847;1262;43859;-89
2023/04/25 05:04:53;;;;;;;5.60;4.00;;;;;;;8.59;94.80;99378.16;180786;1262;58794;-89
2023/04/25 05:08:57;;;;;;;4.30;3.80;;;;;;;8.57;94.80;99375.79;180726;1262;44112;-88
2023/04/25 05:13:01;;;;;;;5.00;4.60;;;;;;;8.58;95.11;99378.72;180712;1262;43863;-89
2023/04/25 05:17:08;;;;;;;6.10;4.60;;;;;;;8.56;95.01;99380.30;180732;1262;43847;-88
2023/04/25 05:21:11;;;;;;;8.00;6.00;;;;;;;8.52;95.47;99382.40;180780;1262;44093;-89
2023/04/25 05:25:14;;;;;;;8.80;4.00;;;;;;;8.56;96.28;99376.45;180773;1262;58381;-88
2023/04/25 05:29:18;;;;;;;6.90;5.70;;;;;;;8.61;96.75;99372.84;180781;1261;43896;-89
2023/04/25 05:33:21;;;;;;;5.50;4.20;;;;;;;8.70;96.60;99365.34;180849;1262;43741;-89
2023/04/25 05:37:24;;;;;;;17.50;6.90;;;;;;;8.78;96.54;99365.85;180937;1262;43970;-88
2023/04/25 05:41:27;;;;;;;12.90;6.00;;;;;;;8.84;96.47;99364.23;180974;1262;43939;-89
2023/04/25 05:45:30;;;;;;;8.90;6.20;;;;;;;8.97;96.72;99364.39;180909;1262;59397;-89
2023/04/25 05:49:34;;;;;;;9.40;5.90;;;;;;;9.09;97.11;99362.26;180868;1262;44073;-89
2023/04/25 05:53:37;;;;;;;5.90;5.30;;;;;;;9.28;96.69;99360.55;180929;1262;43851;-89
2023/04/25 05:57:42;;;;;;;11.90;8.40;;;;;;;9.47;95.76;99358.77;180936;1262;43770;-89
2023/04/25 06:01:46;;;;;;;6.20;5.10;;;;;;;9.71;95.40;99363.91;180815;1262;43918;-90
2023/04/25 06:05:50;;;;;;;8.10;6.00;;;;;;;9.89;94.54;99364.70;180885;1264;58263;-88
2023/04/25 06:09:53;;;;;;;8.90;5.60;;;;;;;10.05;94.53;99366.02;180789;1262;44271;-86
2023/04/25 06:13:56;;;;;;;9.80;6.90;;;;;;;10.03;93.22;99361.27;180881;1262;43797;-89
2023/04/25 06:17:59;;;;;;;6.60;5.00;;;;;;;9.98;90.54;99357.80;180872;1262;43876;-89
2023/04/25 06:22:03;;;;;;;9.00;7.00;;;;;;;10.25;91.85;99351.03;180877;1262;43958;-88
2023/04/25 06:26:06;;;;;;;14.10;7.00;;;;;;;10.60;89.07;99348.69;180712;1262;58258;-89
2023/04/25 06:30:11;;;;;;;6.20;5.50;;;;;;;10.88;85.89;99345.63;180749;1262;44142;-89
2023/04/25 06:34:15;;;;;;;8.70;6.40;;;;;;;11.06;82.72;99345.45;180839;1262;43814;-88
2023/04/25 06:38:18;;;;;;;6.00;4.90;;;;;;;11.19;80.26;99346.84;180698;1262;43825;-88
2023/04/25 06:42:21;;;;;;;9.90;5.60;;;;;;;11.16;79.38;99345.62;180712;1262;43807;-88
2023/04/25 06:46:25;;;;;;;7.80;7.00;;;;;;;11.15;80.54;99342.55;180826;1263;59305;-88
2023/04/25 06:50:28;;;;;;;7.00;5.60;;;;;;;11.11;81.05;99342.67;180699;1264;43797;-86
2023/04/25 06:54:32;;;;;;;9.40;7.00;;;;;;;11.07;82.35;99339.46;180799;1264;43843;-88
2023/04/25 06:58:35;;;;;;;18.50;10.60;;;;;;;11.13;82.36;99343.44;180841;1262;43806;-89
2023/04/25 07:02:38;;;;;;;23.50;15.70;;;;;;;11.08;80.97;99342.05;180726;1264;43895;-89
2023/04/25 07:06:42;;;;;;;13.90;7.80;;;;;;;11.20;81.74;99341.56;180470;1262;251731;-89
2023/04/25 07:10:46;;;;;;;7.40;6.20;;;;;;;11.41;83.52;99341.59;180781;1262;43921;-88
2023/04/25 07:14:51;;;;;;;11.00;7.10;;;;;;;11.66;83.39;99345.15;180719;1262;44256;-87
2023/04/25 07:18:55;;;;;;;13.70;7.40;;;;;;;11.92;82.75;99341.60;180776;1262;43824;-88
2023/04/25 07:22:58;;;;;;;9.10;7.10;;;;;;;12.00;80.20;99341.20;180789;1262;43935;-89
2023/04/25 07:27:02;;;;;;;10.70;7.20;;;;;;;11.98;80.53;99341.21;180652;1264;60682;-89
2023/04/25 07:31:05;;;;;;;8.50;6.50;;;;;;;12.16;81.69;99340.80;180695;1262;43783;-89
2023/04/25 07:35:09;;;;;;;10.90;5.80;;;;;;;12.29;80.95;99340.85;180826;1262;44065;-89
2023/04/25 07:39:12;;;;;;;13.30;7.00;;;;;;;12.28;79.64;99337.65;180755;1262;43877;-88
2023/04/25 07:43:16;;;;;;;10.00;7.60;;;;;;;12.34;79.86;99340.17;180615;1262;43869;-89
2023/04/25 07:47:20;;;;;;;8.50;6.50;;;;;;;12.32;81.06;99339.57;180773;1262;60114;-88
2023/04/25 07:51:23;;;;;;;15.10;8.80;;;;;;;12.48;80.68;99343.56;180810;1263;44101;-88
2023/04/25 07:55:27;;;;;;;7.80;6.20;;;;;;;12.35;79.20;99345.64;180872;1262;43804;-88
2023/04/25 07:59:30;;;;;;;12.10;7.60;;;;;;;12.26;79.53;99348.64;180793;1262;43859;-89
2023/04/25 08:03:34;;;;;;;6.30;5.60;;;;;;;12.26;78.24;99346.35;180878;1262;43746;-89
2023/04/25 08:07:38;;;;;;;10.80;8.00;;;;;;;12.37;79.03;99338.66;180750;1262;58266;-88
2023/04/25 08:11:42;;;;;;;10.00;6.60;;;;;;;12.36;77.47;99339.51;180780;1262;43887;-89
2023/04/25 08:15:45;;;;;;;15.30;8.00;;;;;;;12.46;78.75;99341.42;180783;1262;43989;-88
2023/04/25 08:19:49;;;;;;;11.10;6.80;;;;;;;12.71;77.95;99335.10;180725;1262;44015;-88
2023/04/25 08:23:52;;;;;;;10.80;6.80;;;;;;;12.82;76.51;99332.18;180765;1262;43788;-89
2023/04/25 08:27:56;;;;;;;5.50;4.60;;;;;;;12.73;74.98;99328.52;180733;1262;59570;-89
2023/04/25 08:32:00;;;;;;;5.90;4.20;;;;;;;12.55;76.83;99336.61;180733;1262;43813;-86
2023/04/25 08:36:04;;;;;;;5.90;3.90;;;;;;;12.50;75.69;99345.16;180777;1262;47762;-87
2023/04/25 08:40:14;;;;;;;4.20;3.80;;;;;;;12.40;75.55;99339.30;180779;1262;44253;-89
2023/04/25 08:44:17;;;;;;;5.00;4.40;;;;;;;12.61;77.33;99337.73;180975;1262;44028;-89
2023/04/25 08:48:21;;;;;;;4.90;3.50;;;;;;;13.15;74.27;99337.80;180811;1262;61182;-89
2023/04/25 08:52:30;;;;;;;7.90;6.80;;;;;;;12.83;71.91;99347.15;180818;1262;43916;-89
2023/04/25 08:56:34;;;;;;;10.70;4.40;;;;;;;12.53;70.68;99354.77;180854;1262;44200;-89
2023/04/25 09:00:39;;;;;;;6.20;4.70;;;;;;;12.49;72.16;99360.01;180852;1262;44098;-88
2023/04/25 09:04:44;;;;;;;7.00;4.60;;;;;;;12.85;73.57;99351.27;180815;1262;43952;-88
2023/04/25 09:08:50;;;;;;;5.50;3.80;;;;;;;13.16;69.72;99350.08;180653;1262;60938;-89
2023/04/25 09:13:04;;;;;;;8.60;4.90;;;;;;;13.47;66.54;99350.70;180839;1262;44125;-88
2023/04/25 09:17:08;;;;;;;6.30;4.30;;;;;;;13.73;70.54;99352.92;180935;1262;43871;-89
2023/04/25 09:21:12;;;;;;;5.70;2.70;;;;;;;13.77;69.64;99352.96;180776;1262;43840;-89
2023/04/25 09:25:17;;;;;;;4.80;3.30;;;;;;;14.06;67.96;99360.02;180829;1262;44042;-89
2023/04/25 09:29:29;;;;;;;5.80;2.50;;;;;;;14.17;65.78;99353.92;180791;1262;59315;-89
2023/04/25 09:33:36;;;;;;;4.40;2.40;;;;;;;13.77;62.75;99361.02;180729;1262;44047;-88
2023/04/25 09:37:40;;;;;;;3.20;2.70;;;;;;;13.49;63.43;99363.73;180792;1262;44172;-88
2023/04/25 09:41:45;;;;;;;3.10;1.90;;;;;;;13.25;66.27;99361.63;180775;1262;43885;-89
2023/04/25 09:45:51;;;;;;;6.20;3.00;;;;;;;13.29;68.39;99356.71;180747;1262;43751;-87
2023/04/25 09:49:55;;;;;;;2.00;1.70;;;;;;;13.34;66.32;99363.85;180807;1262;59656;-89
2023/04/25 09:53:58;;;;;;;3.70;2.50;;;;;;;13.31;64.90;99365.81;180773;1262;43871;-90
2023/04/25 09:58:08;;;;;;;2.50;2.10;;;;;;;13.40;65.81;99363.55;180695;1266;44193;-89
2023/04/25 10:02:13;;;;;;;8.80;2.30;;;;;;;13.49;66.51;99365.77;180768;1262;43985;-88
2023/04/25 10:06:22;;;;;;;2.10;1.90;;;;;;;13.58;64.84;99365.44;180772;1262;43739;-89
2023/04/25 10:10:27;;;;;;;2.50;1.90;;;;;;;13.70;64.83;99359.09;180694;1262;59847;-89
2023/04/25 10:14:34;;;;;;;2.30;1.70;;;;;;;13.83;65.20;99364.45;180744;1262;43797;-89
2023/04/25 10:18:38;;;;;;;3.00;1.80;;;;;;;13.81;63.27;99362.88;180728;1263;43780;-88
2023/04/25 10:22:45;;;;;;;7.00;2.80;;;;;;;13.84;63.43;99365.80;180835;1262;43925;-89
2023/04/25 10:26:50;;;;;;;2.40;2.00;;;;;;;13.99;62.63;99359.02;180798;1262;43866;-89
2023/04/25 10:30:58;;;;;;;2.70;1.50;;;;;;;14.25;63.83;99358.05;180755;1262;60079;-88
2023/04/25 10:35:13;;;;;;;2.50;1.60;;;;;;;14.48;62.77;99350.49;180939;1262;43727;-89
2023/04/25 10:39:26;;;;;;;2.30;1.60;;;;;;;14.53;63.06;99357.10;180752;1262;43891;-88
2023/04/25 10:43:41;;;;;;;4.20;2.50;;;;;;;14.20;63.29;99354.93;180748;1262;43880;-89
2023/04/25 10:47:44;;;;;;;8.10;2.00;;;;;;;14.11;66.26;99355.88;180781;1262;43823;-89
2023/04/25 10:51:48;;;;;;;3.20;1.90;;;;;;;14.01;63.95;99356.65;180855;1262;60971;-89
2023/04/25 10:55:57;;;;;;;2.50;2.20;;;;;;;13.81;62.75;99357.02;180804;1264;43807;-88
2023/04/25 11:00:13;;;;;;;4.40;2.20;;;;;;;13.60;64.04;99350.57;180775;1262;43864;-89
2023/04/25 11:04:24;;;;;;;3.30;1.80;;;;;;;13.74;66.92;99350.66;180781;1262;43868;-89
2023/04/25 11:08:47;;;;;;;6.70;1.90;;;;;;;13.94;67.62;99348.10;180887;1262;44139;-89
2023/04/25 11:12:51;;;;;;;1.30;1.20;;;;;;;14.06;63.07;99345.77;180772;1262;59453;-90
2023/04/25 11:16:58;;;;;;;4.00;1.20;;;;;;;13.71;63.44;99353.30;180841;1262;43732;-89
2023/04/25 11:21:03;;;;;;;2.50;1.90;;;;;;;13.45;65.78;99353.40;180633;1262;44035;-89
2023/04/25 11:25:11;;;;;;;3.70;2.80;;;;;;;13.45;66.22;99358.92;180969;1262;44125;-89
2023/04/25 11:29:14;;;;;;;3.50;2.20;;;;;;;13.66;63.66;99361.66;180808;1262;44198;-89
2023/04/25 11:33:22;;;;;;;3.30;2.00;;;;;;;13.73;62.26;99360.52;180865;1262;58317;-89
2023/04/25 11:37:26;;;;;;;3.20;2.20;;;;;;;13.98;63.38;99360.02;180738;1261;43969;-89
2023/04/25 11:41:30;;;;;;;3.10;2.10;;;;;;;14.16;64.25;99362.45;180832;1262;43913;-88
2023/04/25 11:45:33;;;;;;;2.40;2.20;;;;;;;14.25;64.80;99361.22;180610;1263;47625;-89
2023/04/25 11:49:36;;;;;;;2.50;2.30;;;;;;;14.04;64.20;99363.25;180785;1262;44014;-88
2023/04/25 11:53:44;;;;;;;6.80;2.60;;;;;;;13.58;65.26;99366.30;180845;1262;59818;-89
2023/04/25 11:57:50;;;;;;;4.20;2.00;;;;;;;13.41;65.84;99371.52;180671;1262;43817;-89
2023/04/25 12:01:54;;;;;;;4.20;2.40;;;;;;;13.36;66.63;99369.91;180822;1260;44064;-89
2023/04/25 12:06:03;;;;;;;5.10;2.90;;;;;;;13.40;65.86;99364.90;180792;1262;44077;-88
2023/04/25 12:10:09;;;;;;;11.80;3.30;;;;;;;13.50;66.83;99367.34;180710;1262;43734;-88
2023/04/25 12:14:26;;;;;;;4.10;2.10;;;;;;;13.59;64.82;99375.42;180823;1262;58332;-88
2023/04/25 12:18:30;;;;;;;1.70;1.60;;;;;;;13.76;62.75;99375.89;180751;1262;44196;-89
2023/04/25 12:22:34;;;;;;;1.90;1.50;;;;;;;14.02;62.30;99374.69;180897;1260;44209;-88
2023/04/25 12:26:52;;;;;;;6.00;2.30;;;;;;;14.00;61.60;99372.89;180719;1262;43748;-89
2023/04/25 12:31:04;;;;;;;4.20;2.10;;;;;;;13.92;62.42;99373.61;180694;1262;44148;-89
2023/04/25 12:35:08;;;;;;;2.60;2.00;;;;;;;13.91;63.00;99374.85;180917;1261;58254;-88
2023/04/25 12:39:21;;;;;;;3.10;2.00;;;;;;;13.87;60.89;99379.17;180790;1262;44223;-88
2023/04/25 12:43:25;;;;;;;8.50;2.10;;;;;;;14.02;63.29;99382.40;180713;1260;43860;-88
2023/04/25 12:47:28;;;;;;;1.40;1.30;;;;;;;14.52;65.63;99371.09;180742;1262;43751;-89
2023/04/25 12:51:32;;;;;;;2.40;2.20;;;;;;;14.63;61.56;99368.23;180771;1262;43960;-88
2023/04/25 12:55:35;;;;;;;2.30;1.70;;;;;;;14.64;63.05;99367.83;180736;1261;59321;-88
2023/04/25 12:59:39;;;;;;;3.30;1.90;;;;;;;14.38;61.74;99369.59;180895;1262;43862;-88
2023/04/25 13:03:42;;;;;;;1.70;1.60;;;;;;;14.17;60.80;99376.39;180802;1262;43765;-89
2023/04/25 13:07:45;;;;;;;6.00;2.20;;;;;;;13.90;62.65;99373.19;180842;1262;44046;-88
2023/04/25 13:11:48;;;;;;;6.30;2.30;;;;;;;13.93;66.87;99378.39;180789;1262;44513;-88
2023/04/25 13:15:51;;;;;;;2.90;1.10;;;;;;;14.21;63.22;99383.46;180848;1262;58270;-88
2023/04/25 13:19:54;;;;;;;4.50;2.40;;;;;;;14.30;61.27;99380.84;180626;1262;44173;-87
2023/04/25 13:23:58;;;;;;;4.30;2.00;;;;;;;14.27;62.94;99385.63;180749;1262;44000;-86
2023/04/25 13:28:02;;;;;;;2.90;2.00;;;;;;;14.21;63.51;99388.31;180713;1262;43943;-87
2023/04/25 13:32:05;;;;;;;5.10;2.40;;;;;;;14.29;63.70;99391.27;180700;1262;43895;-87
2023/04/25 13:36:08;;;;;;;4.50;2.20;;;;;;;14.31;63.56;99384.33;180581;1262;58428;-87
2023/04/25 13:40:12;;;;;;;2.90;1.90;;;;;;;14.14;63.64;99391.05;180789;1262;44204;-90
2023/04/25 13:44:18;;;;;;;2.80;2.20;;;;;;;14.13;62.10;99389.54;180769;1262;44020;-89
2023/04/25 13:48:24;;;;;;;3.10;2.00;;;;;;;14.12;62.80;99391.95;180933;1262;43811;-90
2023/04/25 13:57:02;;;;;;;5.30;1.40;;;;;;;13.95;60.69;99402.91;180786;1264;61253;-90
2023/04/25 14:01:06;;;;;;;2.20;1.20;;;;;;;13.84;62.37;99406.63;180719;1263;43799;-90
2023/04/25 14:05:11;;;;;;;3.80;1.80;;;;;;;13.77;63.20;99410.56;180611;1264;43911;-91
2023/04/25 14:09:15;;;;;;;4.30;2.10;;;;;;;13.68;64.93;99415.99;180784;1264;43947;-90
2023/04/25 14:13:18;;;;;;;7.30;3.10;;;;;;;13.36;70.53;99410.89;180695;1263;44518;-90
2023/04/25 14:17:23;;;;;;;4.60;2.60;;;;;;;13.21;72.59;99425.55;180798;1264;59748;-90
2023/04/25 14:21:29;;;;;;;7.50;4.00;;;;;;;13.12;70.42;99436.54;180627;1264;43788;-89
2023/04/25 14:25:32;;;;;;;5.10;2.90;;;;;;;13.14;74.37;99435.08;180622;1264;43870;-89
2023/04/25 14:29:36;;;;;;;1.60;1.50;;;;;;;12.84;68.55;99448.33;180457;1264;43805;-86
2023/04/25 14:33:42;;;;;;;3.00;1.50;;;;;;;12.54;67.75;99459.79;180557;1264;44012;-86
2023/04/25 14:37:46;;;;;;;3.10;1.70;;;;;;;12.42;69.95;99467.02;180482;1264;58346;-88
2023/04/25 14:41:49;;;;;;;3.20;2.50;;;;;;;12.38;68.54;99471.38;180449;1264;46592;-87
2023/04/25 14:45:53;;;;;;;3.10;1.60;;;;;;;12.49;70.30;99472.60;180529;1264;43849;-87
2023/04/25 14:50:01;;;;;;;2.80;2.10;;;;;;;12.57;70.59;99479.08;180621;1263;44016;-86
2023/04/25 14:54:04;;;;;;;2.10;1.80;;;;;;;12.37;71.69;99476.42;180538;1264;43792;-87
2023/04/25 14:58:08;;;;;;;3.40;2.00;;;;;;;12.15;71.88;99479.58;180688;1263;59725;-86
2023/04/25 15:02:11;;;;;;;5.00;3.00;;;;;;;12.05;73.80;99489.58;180644;1264;44081;-87
2023/04/25 15:06:15;;;;;;;3.50;2.30;;;;;;;11.98;76.32;99494.02;180533;1263;48075;-88
2023/04/25 15:10:19;;;;;;;5.80;4.00;;;;;;;11.82;78.19;99496.09;180457;1264;43951;-86
2023/04/25 15:14:23;;;;;;;5.50;3.20;;;;;;;11.66;79.29;99498.24;180464;1264;43958;-88
2023/04/25 15:18:26;;;;;;;2.90;1.90;;;;;;;11.35;78.83;99507.96;180501;1264;58302;-84
2023/04/25 15:22:30;;;;;;;4.10;2.50;;;;;;;11.12;80.91;99515.22;180478;1264;43971;-87
2023/04/25 15:26:34;;;;;;;4.70;2.40;;;;;;;10.94;81.61;99525.92;180427;1262;43993;-87
2023/04/25 15:30:38;;;;;;;2.80;2.20;;;;;;;10.78;84.54;99533.69;180453;1264;43808;-88
2023/04/25 15:34:43;;;;;;;3.40;2.80;;;;;;;10.72;85.99;99543.63;180667;1263;44236;-87
2023/04/25 15:38:46;;;;;;;4.40;3.00;;;;;;;10.65;85.38;99543.00;180554;1263;59652;-87
2023/04/25 15:42:51;;;;;;;11.20;2.20;;;;;;;10.60;84.71;99547.88;180706;1264;43889;-86
2023/04/25 15:46:55;;;;;;;3.00;1.90;;;;;;;10.41;79.60;99553.67;180474;1264;43918;-85
2023/04/25 15:50:58;;;;;;;3.20;2.60;;;;;;;10.35;81.17;99556.72;180466;1264;43948;-85
2023/04/25 15:55:03;;;;;;;4.40;3.10;;;;;;;10.17;84.22;99564.20;180464;1264;44009;-85
2023/04/25 15:59:06;;;;;;;3.60;2.90;;;;;;;10.10;86.44;99563.80;180390;1264;59625;-85
2023/04/25 16:03:09;;;;;;;7.70;3.70;;;;;;;9.95;89.69;99571.73;180487;1264;43847;-85
2023/04/25 16:07:14;;;;;;;7.90;4.70;;;;;;;9.86;91.59;99569.86;180627;1264;43839;-85
2023/04/25 16:11:18;;;;;;;4.60;2.40;;;;;;;9.87;92.47;99570.84;180430;1264;43950;-85
2023/04/25 16:15:21;;;;;;;3.90;2.30;;;;;;;9.92;92.35;99575.73;180580;1264;43923;-86
2023/04/25 16:19:25;;;;;;;7.10;3.30;;;;;;;9.81;92.55;99586.60;180493;1264;57928;-86
2023/04/25 16:23:28;;;;;;;6.60;3.30;;;;;;;9.75;91.81;99579.36;180509;1264;43800;-85
2023/04/25 16:27:38;;;;;;;9.90;4.70;;;;;;;9.74;92.42;99583.84;180629;1264;43758;-85
2023/04/25 16:31:42;;;;;;;3.80;2.80;;;;;;;9.73;92.13;99584.67;180483;1264;44082;-85
2023/04/25 16:35:46;;;;;;;13.40;4.20;;;;;;;9.74;90.82;99590.04;180543;1263;43800;-85
2023/04/25 16:39:49;;;;;;;6.10;3.80;;;;;;;9.78;90.54;99594.13;180513;1264;59711;-86
2023/04/25 16:43:53;;;;;;;11.10;4.40;;;;;;;9.78;91.16;99595.17;180707;1264;45407;-85
2023/04/25 16:47:56;;;;;;;7.50;3.10;;;;;;;9.83;90.73;99594.04;180540;1264;43901;-86
2023/04/25 16:52:00;;;;;;;10.00;5.10;;;;;;;9.80;89.69;99595.88;180473;1264;44334;-86
2023/04/25 16:56:03;;;;;;;6.60;4.10;;;;;;;9.75;87.31;99594.02;180621;1264;44315;-85
2023/04/25 17:00:09;;;;;;;8.70;4.70;;;;;;;9.67;87.52;99598.80;180671;1263;58396;-85
2023/04/25 17:04:12;;;;;;;8.30;5.00;;;;;;;9.73;87.88;99606.22;180686;1264;43820;-85
2023/04/25 17:08:16;;;;;;;11.90;4.80;;;;;;;9.74;86.61;99609.86;180620;1263;44051;-86
2023/04/25 17:12:20;;;;;;;10.90;6.40;;;;;;;9.83;85.98;99614.54;180682;1264;44178;-84
2023/04/25 17:16:33;;;;;;;8.50;5.00;;;;;;;9.81;86.92;99618.92;180689;1264;44045;-84
2023/04/25 17:20:37;;;;;;;13.40;5.90;;;;;;;9.86;86.46;99620.00;180550;1264;58007;-86
2023/04/25 17:24:40;;;;;;;10.00;5.70;;;;;;;9.83;87.00;99628.20;180501;1264;44093;-86
2023/04/25 17:28:47;;;;;;;17.70;6.50;;;;;;;9.83;86.88;99626.62;180682;1264;43996;-85
2023/04/25 17:32:51;;;;;;;9.40;4.40;;;;;;;9.83;87.74;99629.58;180545;1264;43814;-84
2023/04/25 17:36:54;;;;;;;8.20;4.70;;;;;;;9.75;88.27;99637.42;180449;1264;46035;-85
2023/04/25 17:40:57;;;;;;;13.10;5.00;;;;;;;9.65;89.33;99642.17;180514;1263;58317;-85
2023/04/25 17:45:01;;;;;;;10.70;5.50;;;;;;;9.83;90.25;99644.46;180591;1264;44020;-86
2023/04/25 17:49:05;;;;;;;13.20;6.80;;;;;;;9.97;90.16;99645.92;180638;1263;44031;-85
2023/04/25 17:53:08;;;;;;;8.30;5.10;;;;;;;10.03;90.48;99657.78;180722;1263;43893;-85
2023/04/25 17:57:11;;;;;;;14.70;6.60;;;;;;;9.98;90.83;99663.56;180539;1264;44135;-86
2023/04/25 18:01:14;;;;;;;19.50;6.00;;;;;;;9.85;90.93;99670.19;180499;1264;59128;-86
2023/04/25 18:05:18;;;;;;;12.40;4.90;;;;;;;9.69;88.37;99679.92;180565;1264;43882;-87
2023/04/25 18:09:22;;;;;;;13.80;6.40;;;;;;;9.44;88.35;99690.56;180712;1264;43836;-87
2023/04/25 18:13:25;;;;;;;7.70;5.20;;;;;;;9.31;89.48;99691.32;180627;1263;43861;-87
2023/04/25 18:17:28;;;;;;;12.50;6.20;;;;;;;9.28;89.24;99697.23;180637;1264;44157;-86
2023/04/25 18:21:31;;;;;;;10.70;5.50;;;;;;;9.23;85.73;99702.40;180632;1264;59602;-86
2023/04/25 18:25:35;;;;;;;13.10;5.80;;;;;;;9.24;86.30;99706.57;180636;1264;44353;-87
2023/04/25 18:29:41;;;;;;;12.80;6.70;;;;;;;9.04;87.32;99713.36;180638;1263;44207;-87
2023/04/25 18:33:44;;;;;;;9.50;4.50;;;;;;;8.89;83.63;99714.45;180587;1263;44043;-86
2023/04/25 18:37:48;;;;;;;14.20;5.30;;;;;;;8.79;79.17;99721.11;180563;1264;44096;-86
2023/04/25 18:41:52;;;;;;;7.10;4.00;;;;;;;8.87;77.76;99726.48;180575;1264;58233;-87
2023/04/25 18:46:03;;;;;;;8.00;4.60;;;;;;;8.73;82.60;99738.61;180660;1264;44182;-87
2023/04/25 18:54:28;;;;;;;16.40;7.80;;;;;;;8.50;88.40;99747.88;172394;1260;85726;-61
2023/04/25 18:58:31;;;;;;;9.40;6.60;;;;;;;8.39;86.86;99752.77;181397;1260;43915;-61
2023/04/25 19:02:35;;;;;;;9.20;7.00;;;;;;;8.31;85.33;99759.05;181367;1260;59505;-62
2023/04/25 19:06:39;;;;;;;18.20;7.90;;;;;;;8.08;85.68;99758.13;181127;1262;182776;-61
2023/04/25 19:10:41;;;;;;;7.30;4.90;;;;;;;7.90;87.43;99759.15;181308;1260;43668;-62